sensor_id;sensor_type;location;lat;lon;timestamp;P1;P2;P0
77974;PMS5003;67164;51.202;0.278;2023-06-10T00:00:47;22;21;
77974;PMS5003;67164;51.202;0.278;2023-06-10T00:03:12;18;18;
77974;PMS5003;67164;51.202;0.278;2023-06-10T00:05:38;19;19;
77974;PMS5003;67164;51.202;0.278;2023-06-10T00:08:04;18;17;
77974;PMS5003;67164;51.202;0.278;2023-06-10T00:10:29;22;19;
77974;PMS5003;67164;51.202;0.278;2023-06-10T00:12:55;21;18;
77974;PMS5003;67164;51.202;0.278;2023-06-10T00:15:20;16;16;
77974;PMS5003;67164;51.202;0.278;2023-06-10T00:17:46;19;19;
77974;PMS5003;67164;51.202;0.278;2023-06-10T00:20:12;21;18;
77974;PMS5003;67164;51.202;0.278;2023-06-10T00:22:37;21;19;
77974;PMS5003;67164;51.202;0.278;2023-06-10T00:25:03;19;19;
77974;PMS5003;67164;51.202;0.278;2023-06-10T00:27:29;21;18;
77974;PMS5003;67164;51.202;0.278;2023-06-10T00:29:54;20;18;
77974;PMS5003;67164;51.202;0.278;2023-06-10T00:32:19;24;20;
77974;PMS5003;67164;51.202;0.278;2023-06-10T00:34:45;19;17;
77974;PMS5003;67164;51.202;0.278;2023-06-10T00:37:10;19;15;
77974;PMS5003;67164;51.202;0.278;2023-06-10T00:39:36;18;17;
77974;PMS5003;67164;51.202;0.278;2023-06-10T00:42:02;20;19;
77974;PMS5003;67164;51.202;0.278;2023-06-10T00:44:27;22;17;
77974;PMS5003;67164;51.202;0.278;2023-06-10T00:46:53;18;16;
77974;PMS5003;67164;51.202;0.278;2023-06-10T00:49:18;25;22;
77974;PMS5003;67164;51.202;0.278;2023-06-10T00:51:43;16;16;
77974;PMS5003;67164;51.202;0.278;2023-06-10T00:54:09;15;15;
77974;PMS5003;67164;51.202;0.278;2023-06-10T00:56:35;17;17;
77974;PMS5003;67164;51.202;0.278;2023-06-10T00:59:00;15;14;
77974;PMS5003;67164;51.202;0.278;2023-06-10T01:01:26;19;17;
77974;PMS5003;67164;51.202;0.278;2023-06-10T01:03:52;17;17;
77974;PMS5003;67164;51.202;0.278;2023-06-10T01:06:20;17;15;
77974;PMS5003;67164;51.202;0.278;2023-06-10T01:08:45;18;17;
77974;PMS5003;67164;51.202;0.278;2023-06-10T01:11:08;17;17;
77974;PMS5003;67164;51.202;0.278;2023-06-10T01:13:34;19;18;
77974;PMS5003;67164;51.202;0.278;2023-06-10T01:16:00;15;15;
77974;PMS5003;67164;51.202;0.278;2023-06-10T01:18:29;19;19;
77974;PMS5003;67164;51.202;0.278;2023-06-10T01:20:50;20;18;
77974;PMS5003;67164;51.202;0.278;2023-06-10T01:23:15;17;17;
77974;PMS5003;67164;51.202;0.278;2023-06-10T01:25:43;18;15;
77974;PMS5003;67164;51.202;0.278;2023-06-10T01:28:07;17;16;
77974;PMS5003;67164;51.202;0.278;2023-06-10T01:30:35;18;15;
77974;PMS5003;67164;51.202;0.278;2023-06-10T01:32:58;18;17;
77974;PMS5003;67164;51.202;0.278;2023-06-10T01:35:24;18;18;
77974;PMS5003;67164;51.202;0.278;2023-06-10T01:37:48;16;16;
77974;PMS5003;67164;51.202;0.278;2023-06-10T01:40:14;18;16;
77974;PMS5003;67164;51.202;0.278;2023-06-10T01:42:40;15;14;
77974;PMS5003;67164;51.202;0.278;2023-06-10T01:45:06;20;17;
77974;PMS5003;67164;51.202;0.278;2023-06-10T01:47:31;18;16;
77974;PMS5003;67164;51.202;0.278;2023-06-10T01:49:57;17;16;
77974;PMS5003;67164;51.202;0.278;2023-06-10T01:52:22;16;16;
77974;PMS5003;67164;51.202;0.278;2023-06-10T01:54:48;21;19;
77974;PMS5003;67164;51.202;0.278;2023-06-10T01:57:13;18;16;
77974;PMS5003;67164;51.202;0.278;2023-06-10T01:59:39;17;15;
77974;PMS5003;67164;51.202;0.278;2023-06-10T02:02:05;17;17;
77974;PMS5003;67164;51.202;0.278;2023-06-10T02:04:30;18;15;
77974;PMS5003;67164;51.202;0.278;2023-06-10T02:06:55;19;16;
77974;PMS5003;67164;51.202;0.278;2023-06-10T02:09:21;18;17;
77974;PMS5003;67164;51.202;0.278;2023-06-10T02:11:47;14;14;
77974;PMS5003;67164;51.202;0.278;2023-06-10T02:14:13;13;13;
77974;PMS5003;67164;51.202;0.278;2023-06-10T02:16:38;16;13;
77974;PMS5003;67164;51.202;0.278;2023-06-10T02:19:04;14;14;
77974;PMS5003;67164;51.202;0.278;2023-06-10T02:21:30;14;13;
77974;PMS5003;67164;51.202;0.278;2023-06-10T02:23:55;16;15;
77974;PMS5003;67164;51.202;0.278;2023-06-10T02:26:21;14;13;
77974;PMS5003;67164;51.202;0.278;2023-06-10T02:28:47;16;16;
77974;PMS5003;67164;51.202;0.278;2023-06-10T02:31:13;19;16;
77974;PMS5003;67164;51.202;0.278;2023-06-10T02:33:38;16;16;
77974;PMS5003;67164;51.202;0.278;2023-06-10T02:36:03;18;13;
77974;PMS5003;67164;51.202;0.278;2023-06-10T02:38:29;15;15;
77974;PMS5003;67164;51.202;0.278;2023-06-10T02:40:55;16;15;
77974;PMS5003;67164;51.202;0.278;2023-06-10T02:43:21;16;15;
77974;PMS5003;67164;51.202;0.278;2023-06-10T02:45:46;16;15;
77974;PMS5003;67164;51.202;0.278;2023-06-10T02:48:12;19;19;
77974;PMS5003;67164;51.202;0.278;2023-06-10T02:50:38;13;13;
77974;PMS5003;67164;51.202;0.278;2023-06-10T02:53:04;17;14;
77974;PMS5003;67164;51.202;0.278;2023-06-10T02:55:29;13;13;
77974;PMS5003;67164;51.202;0.278;2023-06-10T02:57:55;14;13;
77974;PMS5003;67164;51.202;0.278;2023-06-10T03:00:21;16;11;
77974;PMS5003;67164;51.202;0.278;2023-06-10T03:02:47;16;16;
77974;PMS5003;67164;51.202;0.278;2023-06-10T03:05:12;16;15;
77974;PMS5003;67164;51.202;0.278;2023-06-10T03:07:38;15;15;
77974;PMS5003;67164;51.202;0.278;2023-06-10T03:10:05;16;15;
77974;PMS5003;67164;51.202;0.278;2023-06-10T03:12:30;20;16;
77974;PMS5003;67164;51.202;0.278;2023-06-10T03:14:55;14;14;
77974;PMS5003;67164;51.202;0.278;2023-06-10T03:17:21;14;13;
77974;PMS5003;67164;51.202;0.278;2023-06-10T03:19:47;18;16;
77974;PMS5003;67164;51.202;0.278;2023-06-10T03:22:12;22;16;
77974;PMS5003;67164;51.202;0.278;2023-06-10T03:24:38;15;15;
77974;PMS5003;67164;51.202;0.278;2023-06-10T03:27:03;15;15;
77974;PMS5003;67164;51.202;0.278;2023-06-10T03:29:28;17;16;
77974;PMS5003;67164;51.202;0.278;2023-06-10T03:31:54;15;14;
77974;PMS5003;67164;51.202;0.278;2023-06-10T03:34:20;14;13;
77974;PMS5003;67164;51.202;0.278;2023-06-10T03:36:45;17;13;
77974;PMS5003;67164;51.202;0.278;2023-06-10T03:39:11;17;14;
77974;PMS5003;67164;51.202;0.278;2023-06-10T03:41:37;15;14;
77974;PMS5003;67164;51.202;0.278;2023-06-10T03:44:02;16;16;
77974;PMS5003;67164;51.202;0.278;2023-06-10T03:46:28;16;16;
77974;PMS5003;67164;51.202;0.278;2023-06-10T03:48:53;13;13;
77974;PMS5003;67164;51.202;0.278;2023-06-10T03:51:19;15;13;
77974;PMS5003;67164;51.202;0.278;2023-06-10T03:53:45;18;14;
77974;PMS5003;67164;51.202;0.278;2023-06-10T03:56:10;13;13;
77974;PMS5003;67164;51.202;0.278;2023-06-10T03:58:36;20;15;
77974;PMS5003;67164;51.202;0.278;2023-06-10T04:01:02;15;15;
77974;PMS5003;67164;51.202;0.278;2023-06-10T04:03:27;18;16;
77974;PMS5003;67164;51.202;0.278;2023-06-10T04:05:53;14;13;
77974;PMS5003;67164;51.202;0.278;2023-06-10T04:08:19;18;16;
77974;PMS5003;67164;51.202;0.278;2023-06-10T04:10:45;12;12;
77974;PMS5003;67164;51.202;0.278;2023-06-10T04:13:10;18;17;
77974;PMS5003;67164;51.202;0.278;2023-06-10T04:15:36;18;18;
77974;PMS5003;67164;51.202;0.278;2023-06-10T04:18:02;16;14;
77974;PMS5003;67164;51.202;0.278;2023-06-10T04:20:28;16;16;
77974;PMS5003;67164;51.202;0.278;2023-06-10T04:22:53;20;18;
77974;PMS5003;67164;51.202;0.278;2023-06-10T04:25:19;19;17;
77974;PMS5003;67164;51.202;0.278;2023-06-10T04:27:44;17;15;
77974;PMS5003;67164;51.202;0.278;2023-06-10T04:30:10;13;13;
77974;PMS5003;67164;51.202;0.278;2023-06-10T04:32:36;15;14;
77974;PMS5003;67164;51.202;0.278;2023-06-10T04:35:01;15;13;
77974;PMS5003;67164;51.202;0.278;2023-06-10T04:37:27;19;17;
77974;PMS5003;67164;51.202;0.278;2023-06-10T04:39:53;16;14;
77974;PMS5003;67164;51.202;0.278;2023-06-10T04:42:18;15;15;
77974;PMS5003;67164;51.202;0.278;2023-06-10T04:44:44;16;16;
77974;PMS5003;67164;51.202;0.278;2023-06-10T04:47:09;17;17;
77974;PMS5003;67164;51.202;0.278;2023-06-10T04:49:35;17;15;
77974;PMS5003;67164;51.202;0.278;2023-06-10T04:52:01;13;13;
77974;PMS5003;67164;51.202;0.278;2023-06-10T04:54:26;19;17;
77974;PMS5003;67164;51.202;0.278;2023-06-10T04:56:52;13;13;
77974;PMS5003;67164;51.202;0.278;2023-06-10T04:59:17;17;15;
77974;PMS5003;67164;51.202;0.278;2023-06-10T05:01:43;16;14;
77974;PMS5003;67164;51.202;0.278;2023-06-10T05:04:09;13;12;
77974;PMS5003;67164;51.202;0.278;2023-06-10T05:06:34;14;14;
77974;PMS5003;67164;51.202;0.278;2023-06-10T05:09:00;13;13;
77974;PMS5003;67164;51.202;0.278;2023-06-10T05:11:26;15;15;
77974;PMS5003;67164;51.202;0.278;2023-06-10T05:13:52;17;15;
77974;PMS5003;67164;51.202;0.278;2023-06-10T05:16:17;17;14;
77974;PMS5003;67164;51.202;0.278;2023-06-10T05:18:43;16;16;
77974;PMS5003;67164;51.202;0.278;2023-06-10T05:21:09;15;15;
77974;PMS5003;67164;51.202;0.278;2023-06-10T05:23:34;15;15;
77974;PMS5003;67164;51.202;0.278;2023-06-10T05:26:00;19;15;
77974;PMS5003;67164;51.202;0.278;2023-06-10T05:28:25;16;13;
77974;PMS5003;67164;51.202;0.278;2023-06-10T05:30:51;15;15;
77974;PMS5003;67164;51.202;0.278;2023-06-10T05:33:16;18;15;
77974;PMS5003;67164;51.202;0.278;2023-06-10T05:35:41;16;16;
77974;PMS5003;67164;51.202;0.278;2023-06-10T05:38:08;11;11;
77974;PMS5003;67164;51.202;0.278;2023-06-10T05:40:32;18;16;
77974;PMS5003;67164;51.202;0.278;2023-06-10T05:42:58;13;13;
77974;PMS5003;67164;51.202;0.278;2023-06-10T05:45:24;14;13;
77974;PMS5003;67164;51.202;0.278;2023-06-10T05:47:50;13;13;
77974;PMS5003;67164;51.202;0.278;2023-06-10T05:50:15;17;15;
77974;PMS5003;67164;51.202;0.278;2023-06-10T05:52:41;15;12;
77974;PMS5003;67164;51.202;0.278;2023-06-10T05:55:07;18;17;
77974;PMS5003;67164;51.202;0.278;2023-06-10T05:57:32;15;14;
77974;PMS5003;67164;51.202;0.278;2023-06-10T05:59:58;14;14;
77974;PMS5003;67164;51.202;0.278;2023-06-10T06:02:24;14;14;
77974;PMS5003;67164;51.202;0.278;2023-06-10T06:04:50;15;13;
77974;PMS5003;67164;51.202;0.278;2023-06-10T06:07:15;12;12;
77974;PMS5003;67164;51.202;0.278;2023-06-10T06:09:41;15;15;
77974;PMS5003;67164;51.202;0.278;2023-06-10T06:12:07;14;13;
77974;PMS5003;67164;51.202;0.278;2023-06-10T06:14:32;16;12;
77974;PMS5003;67164;51.202;0.278;2023-06-10T06:16:58;15;14;
77974;PMS5003;67164;51.202;0.278;2023-06-10T06:19:23;15;14;
77974;PMS5003;67164;51.202;0.278;2023-06-10T06:21:49;13;12;
77974;PMS5003;67164;51.202;0.278;2023-06-10T06:24:15;19;16;
77974;PMS5003;67164;51.202;0.278;2023-06-10T06:26:45;16;15;
77974;PMS5003;67164;51.202;0.278;2023-06-10T06:29:05;17;14;
77974;PMS5003;67164;51.202;0.278;2023-06-10T06:31:31;15;13;
77974;PMS5003;67164;51.202;0.278;2023-06-10T06:33:56;17;16;
77974;PMS5003;67164;51.202;0.278;2023-06-10T06:36:22;18;13;
77974;PMS5003;67164;51.202;0.278;2023-06-10T06:38:48;13;12;
77974;PMS5003;67164;51.202;0.278;2023-06-10T06:41:14;17;15;
77974;PMS5003;67164;51.202;0.278;2023-06-10T06:43:39;14;14;
77974;PMS5003;67164;51.202;0.278;2023-06-10T06:46:05;14;14;
77974;PMS5003;67164;51.202;0.278;2023-06-10T06:48:30;15;15;
77974;PMS5003;67164;51.202;0.278;2023-06-10T06:50:56;15;15;
77974;PMS5003;67164;51.202;0.278;2023-06-10T06:53:22;12;12;
77974;PMS5003;67164;51.202;0.278;2023-06-10T06:55:48;15;14;
77974;PMS5003;67164;51.202;0.278;2023-06-10T06:58:13;16;15;
77974;PMS5003;67164;51.202;0.278;2023-06-10T07:00:39;12;12;
77974;PMS5003;67164;51.202;0.278;2023-06-10T07:03:05;19;16;
77974;PMS5003;67164;51.202;0.278;2023-06-10T07:05:30;14;14;
77974;PMS5003;67164;51.202;0.278;2023-06-10T07:07:56;17;15;
77974;PMS5003;67164;51.202;0.278;2023-06-10T07:10:22;14;13;
77974;PMS5003;67164;51.202;0.278;2023-06-10T07:12:48;15;15;
77974;PMS5003;67164;51.202;0.278;2023-06-10T07:15:14;14;14;
77974;PMS5003;67164;51.202;0.278;2023-06-10T07:17:39;18;15;
77974;PMS5003;67164;51.202;0.278;2023-06-10T07:20:06;17;17;
77974;PMS5003;67164;51.202;0.278;2023-06-10T07:22:31;21;15;
77974;PMS5003;67164;51.202;0.278;2023-06-10T07:24:57;19;17;
77974;PMS5003;67164;51.202;0.278;2023-06-10T07:27:22;15;13;
77974;PMS5003;67164;51.202;0.278;2023-06-10T07:29:48;14;14;
77974;PMS5003;67164;51.202;0.278;2023-06-10T07:32:13;17;14;
77974;PMS5003;67164;51.202;0.278;2023-06-10T07:34:39;13;12;
77974;PMS5003;67164;51.202;0.278;2023-06-10T07:37:05;16;14;
77974;PMS5003;67164;51.202;0.278;2023-06-10T07:39:30;15;15;
77974;PMS5003;67164;51.202;0.278;2023-06-10T07:41:56;15;13;
77974;PMS5003;67164;51.202;0.278;2023-06-10T07:44:21;14;13;
77974;PMS5003;67164;51.202;0.278;2023-06-10T07:46:47;18;17;
77974;PMS5003;67164;51.202;0.278;2023-06-10T07:49:13;19;15;
77974;PMS5003;67164;51.202;0.278;2023-06-10T07:51:38;17;17;
77974;PMS5003;67164;51.202;0.278;2023-06-10T07:54:05;14;14;
77974;PMS5003;67164;51.202;0.278;2023-06-10T07:56:30;19;16;
77974;PMS5003;67164;51.202;0.278;2023-06-10T07:58:56;17;15;
77974;PMS5003;67164;51.202;0.278;2023-06-10T08:01:22;16;15;
77974;PMS5003;67164;51.202;0.278;2023-06-10T08:03:47;20;18;
77974;PMS5003;67164;51.202;0.278;2023-06-10T08:06:12;19;18;
77974;PMS5003;67164;51.202;0.278;2023-06-10T08:08:38;22;20;
77974;PMS5003;67164;51.202;0.278;2023-06-10T08:11:04;26;24;
77974;PMS5003;67164;51.202;0.278;2023-06-10T08:13:29;25;22;
77974;PMS5003;67164;51.202;0.278;2023-06-10T08:15:55;25;25;
77974;PMS5003;67164;51.202;0.278;2023-06-10T08:18:21;26;24;
77974;PMS5003;67164;51.202;0.278;2023-06-10T08:20:46;27;24;
77974;PMS5003;67164;51.202;0.278;2023-06-10T08:23:12;25;24;
77974;PMS5003;67164;51.202;0.278;2023-06-10T08:25:37;27;25;
77974;PMS5003;67164;51.202;0.278;2023-06-10T08:28:03;29;29;
77974;PMS5003;67164;51.202;0.278;2023-06-10T08:30:28;31;26;
77974;PMS5003;67164;51.202;0.278;2023-06-10T08:32:53;28;25;
77974;PMS5003;67164;51.202;0.278;2023-06-10T08:35:19;31;27;
77974;PMS5003;67164;51.202;0.278;2023-06-10T08:37:44;27;26;
77974;PMS5003;67164;51.202;0.278;2023-06-10T08:40:10;30;28;
77974;PMS5003;67164;51.202;0.278;2023-06-10T08:42:37;26;26;
77974;PMS5003;67164;51.202;0.278;2023-06-10T08:45:02;29;29;
77974;PMS5003;67164;51.202;0.278;2023-06-10T08:47:26;36;30;
77974;PMS5003;67164;51.202;0.278;2023-06-10T08:49:52;38;32;
77974;PMS5003;67164;51.202;0.278;2023-06-10T08:52:17;34;32;
77974;PMS5003;67164;51.202;0.278;2023-06-10T08:54:43;32;31;
77974;PMS5003;67164;51.202;0.278;2023-06-10T08:57:08;41;36;
77974;PMS5003;67164;51.202;0.278;2023-06-10T08:59:34;29;29;
77974;PMS5003;67164;51.202;0.278;2023-06-10T09:01:59;35;30;
77974;PMS5003;67164;51.202;0.278;2023-06-10T09:04:24;34;32;
77974;PMS5003;67164;51.202;0.278;2023-06-10T09:06:50;29;29;
77974;PMS5003;67164;51.202;0.278;2023-06-10T09:09:15;39;33;
77974;PMS5003;67164;51.202;0.278;2023-06-10T09:11:41;36;33;
77974;PMS5003;67164;51.202;0.278;2023-06-10T09:14:06;31;29;
77974;PMS5003;67164;51.202;0.278;2023-06-10T09:16:32;38;31;
77974;PMS5003;67164;51.202;0.278;2023-06-10T09:18:57;35;32;
77974;PMS5003;67164;51.202;0.278;2023-06-10T09:21:22;36;36;
77974;PMS5003;67164;51.202;0.278;2023-06-10T09:23:48;36;32;
77974;PMS5003;67164;51.202;0.278;2023-06-10T09:26:13;36;34;
77974;PMS5003;67164;51.202;0.278;2023-06-10T09:28:38;32;31;
77974;PMS5003;67164;51.202;0.278;2023-06-10T09:31:05;36;36;
77974;PMS5003;67164;51.202;0.278;2023-06-10T09:33:30;39;31;
77974;PMS5003;67164;51.202;0.278;2023-06-10T09:35:55;30;30;
77974;PMS5003;67164;51.202;0.278;2023-06-10T09:38:21;37;32;
77974;PMS5003;67164;51.202;0.278;2023-06-10T09:40:52;31;31;
77974;PMS5003;67164;51.202;0.278;2023-06-10T09:43:11;33;30;
77974;PMS5003;67164;51.202;0.278;2023-06-10T09:45:37;40;35;
77974;PMS5003;67164;51.202;0.278;2023-06-10T09:48:03;36;34;
77974;PMS5003;67164;51.202;0.278;2023-06-10T09:50:27;36;31;
77974;PMS5003;67164;51.202;0.278;2023-06-10T09:52:53;37;35;
77974;PMS5003;67164;51.202;0.278;2023-06-10T09:55:18;34;32;
77974;PMS5003;67164;51.202;0.278;2023-06-10T09:57:44;36;36;
77974;PMS5003;67164;51.202;0.278;2023-06-10T10:00:10;35;34;
77974;PMS5003;67164;51.202;0.278;2023-06-10T10:02:36;34;32;
77974;PMS5003;67164;51.202;0.278;2023-06-10T10:05:02;33;33;
77974;PMS5003;67164;51.202;0.278;2023-06-10T10:07:26;31;29;
77974;PMS5003;67164;51.202;0.278;2023-06-10T10:09:52;32;31;
77974;PMS5003;67164;51.202;0.278;2023-06-10T10:12:18;32;30;
77974;PMS5003;67164;51.202;0.278;2023-06-10T10:14:45;31;31;
77974;PMS5003;67164;51.202;0.278;2023-06-10T10:17:10;32;32;
77974;PMS5003;67164;51.202;0.278;2023-06-10T10:19:36;33;32;
77974;PMS5003;67164;51.202;0.278;2023-06-10T10:22:01;38;34;
77974;PMS5003;67164;51.202;0.278;2023-06-10T10:24:26;28;26;
77974;PMS5003;67164;51.202;0.278;2023-06-10T10:26:51;27;27;
77974;PMS5003;67164;51.202;0.278;2023-06-10T10:29:19;30;28;
77974;PMS5003;67164;51.202;0.278;2023-06-10T10:31:43;32;31;
77974;PMS5003;67164;51.202;0.278;2023-06-10T10:34:09;36;32;
77974;PMS5003;67164;51.202;0.278;2023-06-10T10:36:34;28;28;
77974;PMS5003;67164;51.202;0.278;2023-06-10T10:39:00;30;28;
77974;PMS5003;67164;51.202;0.278;2023-06-10T10:41:25;31;27;
77974;PMS5003;67164;51.202;0.278;2023-06-10T10:43:51;31;31;
77974;PMS5003;67164;51.202;0.278;2023-06-10T10:46:17;32;30;
77974;PMS5003;67164;51.202;0.278;2023-06-10T10:48:42;31;31;
77974;PMS5003;67164;51.202;0.278;2023-06-10T10:51:07;30;28;
77974;PMS5003;67164;51.202;0.278;2023-06-10T10:53:32;36;33;
77974;PMS5003;67164;51.202;0.278;2023-06-10T10:55:58;31;28;
77974;PMS5003;67164;51.202;0.278;2023-06-10T10:58:24;27;26;
77974;PMS5003;67164;51.202;0.278;2023-06-10T11:00:49;28;26;
77974;PMS5003;67164;51.202;0.278;2023-06-10T11:03:16;31;28;
77974;PMS5003;67164;51.202;0.278;2023-06-10T11:05:41;30;27;
77974;PMS5003;67164;51.202;0.278;2023-06-10T11:08:07;27;26;
77974;PMS5003;67164;51.202;0.278;2023-06-10T11:10:32;23;23;
77974;PMS5003;67164;51.202;0.278;2023-06-10T11:12:57;29;26;
77974;PMS5003;67164;51.202;0.278;2023-06-10T11:15:23;31;27;
77974;PMS5003;67164;51.202;0.278;2023-06-10T11:20:13;30;28;
77974;PMS5003;67164;51.202;0.278;2023-06-10T11:25:05;25;25;
77974;PMS5003;67164;51.202;0.278;2023-06-10T11:27:36;27;27;
77974;PMS5003;67164;51.202;0.278;2023-06-10T11:29:57;35;32;
77974;PMS5003;67164;51.202;0.278;2023-06-10T11:32:21;35;32;
77974;PMS5003;67164;51.202;0.278;2023-06-10T11:34:51;39;33;
77974;PMS5003;67164;51.202;0.278;2023-06-10T11:37:12;38;36;
77974;PMS5003;67164;51.202;0.278;2023-06-10T11:39:38;45;45;
77974;PMS5003;67164;51.202;0.278;2023-06-10T11:42:04;39;35;
77974;PMS5003;67164;51.202;0.278;2023-06-10T11:44:29;46;43;
77974;PMS5003;67164;51.202;0.278;2023-06-10T11:46:55;40;38;
77974;PMS5003;67164;51.202;0.278;2023-06-10T11:49:20;38;37;
77974;PMS5003;67164;51.202;0.278;2023-06-10T11:51:45;32;30;
77974;PMS5003;67164;51.202;0.278;2023-06-10T11:54:11;28;28;
77974;PMS5003;67164;51.202;0.278;2023-06-10T11:56:36;47;41;
77974;PMS5003;67164;51.202;0.278;2023-06-10T11:59:02;45;42;
77974;PMS5003;67164;51.202;0.278;2023-06-10T12:01:27;38;38;
77974;PMS5003;67164;51.202;0.278;2023-06-10T12:03:58;40;33;
77974;PMS5003;67164;51.202;0.278;2023-06-10T12:06:18;37;34;
77974;PMS5003;67164;51.202;0.278;2023-06-10T12:08:43;31;29;
77974;PMS5003;67164;51.202;0.278;2023-06-10T12:11:08;33;33;
77974;PMS5003;67164;51.202;0.278;2023-06-10T12:13:33;30;30;
77974;PMS5003;67164;51.202;0.278;2023-06-10T12:18:24;25;25;
77974;PMS5003;67164;51.202;0.278;2023-06-10T12:20:50;32;29;
77974;PMS5003;67164;51.202;0.278;2023-06-10T12:23:16;29;26;
77974;PMS5003;67164;51.202;0.278;2023-06-10T12:28:09;30;27;
77974;PMS5003;67164;51.202;0.278;2023-06-10T12:30:32;28;27;
77974;PMS5003;67164;51.202;0.278;2023-06-10T12:32:58;26;26;
77974;PMS5003;67164;51.202;0.278;2023-06-10T12:35:23;27;25;
77974;PMS5003;67164;51.202;0.278;2023-06-10T12:37:55;28;25;
77974;PMS5003;67164;51.202;0.278;2023-06-10T12:40:14;28;27;
77974;PMS5003;67164;51.202;0.278;2023-06-10T12:42:39;25;25;
77974;PMS5003;67164;51.202;0.278;2023-06-10T12:45:05;26;26;
77974;PMS5003;67164;51.202;0.278;2023-06-10T12:47:30;29;26;
77974;PMS5003;67164;51.202;0.278;2023-06-10T12:49:55;25;25;
77974;PMS5003;67164;51.202;0.278;2023-06-10T12:52:21;28;25;
77974;PMS5003;67164;51.202;0.278;2023-06-10T12:54:47;27;25;
77974;PMS5003;67164;51.202;0.278;2023-06-10T12:57:12;26;25;
77974;PMS5003;67164;51.202;0.278;2023-06-10T12:59:38;26;26;
77974;PMS5003;67164;51.202;0.278;2023-06-10T13:02:04;31;28;
77974;PMS5003;67164;51.202;0.278;2023-06-10T13:04:29;25;25;
77974;PMS5003;67164;51.202;0.278;2023-06-10T13:06:55;25;25;
77974;PMS5003;67164;51.202;0.278;2023-06-10T13:09:21;24;24;
77974;PMS5003;67164;51.202;0.278;2023-06-10T13:11:45;28;27;
77974;PMS5003;67164;51.202;0.278;2023-06-10T13:14:11;28;22;
77974;PMS5003;67164;51.202;0.278;2023-06-10T13:16:37;23;22;
77974;PMS5003;67164;51.202;0.278;2023-06-10T13:19:02;25;24;
77974;PMS5003;67164;51.202;0.278;2023-06-10T13:21:28;23;23;
77974;PMS5003;67164;51.202;0.278;2023-06-10T13:23:53;21;21;
77974;PMS5003;67164;51.202;0.278;2023-06-10T13:26:19;25;24;
77974;PMS5003;67164;51.202;0.278;2023-06-10T13:28:44;23;23;
77974;PMS5003;67164;51.202;0.278;2023-06-10T13:31:10;29;27;
77974;PMS5003;67164;51.202;0.278;2023-06-10T13:33:35;24;24;
77974;PMS5003;67164;51.202;0.278;2023-06-10T13:36:01;24;24;
77974;PMS5003;67164;51.202;0.278;2023-06-10T13:38:27;30;28;
77974;PMS5003;67164;51.202;0.278;2023-06-10T13:40:52;29;27;
77974;PMS5003;67164;51.202;0.278;2023-06-10T13:43:18;31;27;
77974;PMS5003;67164;51.202;0.278;2023-06-10T13:45:43;29;26;
77974;PMS5003;67164;51.202;0.278;2023-06-10T13:48:09;26;26;
77974;PMS5003;67164;51.202;0.278;2023-06-10T13:50:34;24;23;
77974;PMS5003;67164;51.202;0.278;2023-06-10T13:52:59;26;26;
77974;PMS5003;67164;51.202;0.278;2023-06-10T13:55:25;23;23;
77974;PMS5003;67164;51.202;0.278;2023-06-10T13:57:51;25;24;
77974;PMS5003;67164;51.202;0.278;2023-06-10T14:00:17;25;25;
77974;PMS5003;67164;51.202;0.278;2023-06-10T14:02:42;27;25;
77974;PMS5003;67164;51.202;0.278;2023-06-10T14:05:08;28;28;
77974;PMS5003;67164;51.202;0.278;2023-06-10T14:07:33;25;25;
77974;PMS5003;67164;51.202;0.278;2023-06-10T14:09:59;27;26;
77974;PMS5003;67164;51.202;0.278;2023-06-10T14:12:24;27;26;
77974;PMS5003;67164;51.202;0.278;2023-06-10T14:14:49;26;25;
77974;PMS5003;67164;51.202;0.278;2023-06-10T14:17:15;29;27;
77974;PMS5003;67164;51.202;0.278;2023-06-10T14:19:40;28;27;
77974;PMS5003;67164;51.202;0.278;2023-06-10T14:22:06;26;25;
77974;PMS5003;67164;51.202;0.278;2023-06-10T14:24:31;24;23;
77974;PMS5003;67164;51.202;0.278;2023-06-10T14:26:57;24;24;
77974;PMS5003;67164;51.202;0.278;2023-06-10T14:29:23;25;25;
77974;PMS5003;67164;51.202;0.278;2023-06-10T14:31:48;28;27;
77974;PMS5003;67164;51.202;0.278;2023-06-10T14:34:14;27;24;
77974;PMS5003;67164;51.202;0.278;2023-06-10T14:36:40;32;29;
77974;PMS5003;67164;51.202;0.278;2023-06-10T14:39:05;30;29;
77974;PMS5003;67164;51.202;0.278;2023-06-10T14:41:31;28;26;
77974;PMS5003;67164;51.202;0.278;2023-06-10T14:43:56;25;23;
77974;PMS5003;67164;51.202;0.278;2023-06-10T14:46:22;26;26;
77974;PMS5003;67164;51.202;0.278;2023-06-10T14:48:48;29;26;
77974;PMS5003;67164;51.202;0.278;2023-06-10T14:51:13;28;28;
77974;PMS5003;67164;51.202;0.278;2023-06-10T14:53:39;23;21;
77974;PMS5003;67164;51.202;0.278;2023-06-10T14:56:05;23;22;
77974;PMS5003;67164;51.202;0.278;2023-06-10T14:58:30;24;24;
77974;PMS5003;67164;51.202;0.278;2023-06-10T15:00:56;30;30;
77974;PMS5003;67164;51.202;0.278;2023-06-10T15:03:22;35;33;
77974;PMS5003;67164;51.202;0.278;2023-06-10T15:05:47;42;36;
77974;PMS5003;67164;51.202;0.278;2023-06-10T15:08:13;36;34;
77974;PMS5003;67164;51.202;0.278;2023-06-10T15:10:38;35;35;
77974;PMS5003;67164;51.202;0.278;2023-06-10T15:13:03;29;29;
77974;PMS5003;67164;51.202;0.278;2023-06-10T15:15:28;38;37;
77974;PMS5003;67164;51.202;0.278;2023-06-10T15:17:54;39;39;
77974;PMS5003;67164;51.202;0.278;2023-06-10T15:20:20;40;37;
77974;PMS5003;67164;51.202;0.278;2023-06-10T15:22:45;41;40;
77974;PMS5003;67164;51.202;0.278;2023-06-10T15:25:10;41;41;
77974;PMS5003;67164;51.202;0.278;2023-06-10T15:27:36;44;41;
77974;PMS5003;67164;51.202;0.278;2023-06-10T15:30:01;38;38;
77974;PMS5003;67164;51.202;0.278;2023-06-10T15:32:27;51;47;
77974;PMS5003;67164;51.202;0.278;2023-06-10T15:34:52;43;41;
77974;PMS5003;67164;51.202;0.278;2023-06-10T15:37:18;44;42;
77974;PMS5003;67164;51.202;0.278;2023-06-10T15:39:43;46;42;
77974;PMS5003;67164;51.202;0.278;2023-06-10T15:42:09;44;42;
77974;PMS5003;67164;51.202;0.278;2023-06-10T15:44:35;49;45;
77974;PMS5003;67164;51.202;0.278;2023-06-10T15:47:00;43;41;
77974;PMS5003;67164;51.202;0.278;2023-06-10T15:49:26;44;41;
77974;PMS5003;67164;51.202;0.278;2023-06-10T15:51:52;42;42;
77974;PMS5003;67164;51.202;0.278;2023-06-10T15:54:17;45;43;
77974;PMS5003;67164;51.202;0.278;2023-06-10T15:56:43;52;50;
77974;PMS5003;67164;51.202;0.278;2023-06-10T15:59:09;48;47;
77974;PMS5003;67164;51.202;0.278;2023-06-10T16:01:35;52;48;
77974;PMS5003;67164;51.202;0.278;2023-06-10T16:04:00;49;46;
77974;PMS5003;67164;51.202;0.278;2023-06-10T16:06:25;48;48;
77974;PMS5003;67164;51.202;0.278;2023-06-10T16:08:50;47;45;
77974;PMS5003;67164;51.202;0.278;2023-06-10T16:11:15;52;49;
77974;PMS5003;67164;51.202;0.278;2023-06-10T16:13:41;53;51;
77974;PMS5003;67164;51.202;0.278;2023-06-10T16:16:06;64;59;